Nellis Air Force Base, NV

5:18 AM PST on January 26, 2015 (GMT -0800)
Nellis AFB | Change Station
CLOSE
Current Station
Airport
Location: Nellis AFB,
Elevation: 1870 ft
Nearby Weather Stations

Elev 1870 ft 36.24 °N, 115.03 °W | Updated 20 minutes ago

Clear
Clear
47 °F
Feels Like 47 °F
N
1
Wind Variable Wind from WNW

Today
High -- | Low -- °F
--% Chance of Precip.
Yesterday
High -- | Low -- °F
Precip. -- in
6:45 AM 5:00 PM
Waxing Crescent, 43% visible
Pressure 30.13 in
Visibility 10.0 miles
Clouds Clear
Dew Point 31 °F
Humidity 54%
Rainfall 0.00 in
Snow Depth Not available.
UV 0 out of 12
Pollen 4.40 out of 12
Air Quality Not available.
Flu Activity Not available.
METAR KLSV 261258Z AUTO 30001KT 10SM CLR 08/M01 A3015 RMK AO2 SLP203 T00811006 $

More Conditions Fewer Conditions

Pressure 30.13 in
Visibility 10.0 miles
Clouds Clear
Dew Point 31 °F
Humidity 54%
Rainfall 0.00 in
Snow Depth Not available.
UV 0 out of 12
Pollen 4.40 out of 12
Air Quality Not available.
Flu Activity Not available.
METAR KLSV 261258Z AUTO 30001KT 10SM CLR 08/M01 A3015 RMK AO2 SLP203 T00811006 $

More Conditions Fewer Conditions

10-Day Weather Forecast

Almanac

Astronomy

Jan. 26, 2015 Rise Set
Actual Time
Civil Twilight
Nautical Twilight
Astronomical Twilight
Moon
Length of Visible Light
Length of Day
Tomorrow will be .
, % of the Moon is Illuminated

Today's Extremes

State Highs State Lows

Community

WunderPhotos

Upload Photos

1,790,192 photos uploaded!

WunderBlogs® & News

Nearby

Air Quality

  Air Quality AQ Index Pollutant
Not available.

Snow Depth

Station Depth Elevation

Earthquake Activity

City Distance Mag. Time & Date
Minimum magnitude displayed is 2.5.

Coastal Water Temperatures

Place Temperature

Nearby Weather Stations